createdAt,value
2022-12-10T00:01:36.290Z,98682.28
2022-12-10T00:04:38.917Z,98694.28
2022-12-10T00:07:41.698Z,98692.75
2022-12-10T00:10:44.593Z,98697.16
2022-12-10T00:13:49.193Z,98687.91
2022-12-10T00:16:51.949Z,98691.97
2022-12-10T00:19:54.713Z,98697.06
2022-12-10T00:22:57.431Z,98694.41
2022-12-10T00:26:09.002Z,98701.34
2022-12-10T00:29:13.344Z,98705.06
2022-12-10T00:32:16.098Z,98710.22
2022-12-10T00:35:18.856Z,98715.41
2022-12-10T00:38:21.568Z,98717.97
2022-12-10T00:41:24.609Z,98720.53
2022-12-10T00:44:27.475Z,98724.78
2022-12-10T00:47:30.261Z,98721.34
2022-12-10T00:50:35.055Z,98736.03
2022-12-10T00:53:41.259Z,98736.97
2022-12-10T00:56:43.995Z,98734.44
2022-12-10T00:59:46.804Z,98740.53
2022-12-10T01:02:49.575Z,98741.50
2022-12-10T01:05:53.525Z,98744.25
2022-12-10T01:08:59.041Z,98744.25
2022-12-10T01:12:03.848Z,98738.97
2022-12-10T01:15:06.950Z,98748.84
2022-12-10T01:18:09.685Z,98748.31
2022-12-10T01:21:15.566Z,98755.97
2022-12-10T01:24:18.287Z,98755.62
2022-12-10T01:27:21.144Z,98760.78
2022-12-10T01:30:24.374Z,98754.81
2022-12-10T01:33:27.054Z,98757.44
2022-12-10T01:36:33.902Z,98747.03
2022-12-10T01:39:36.625Z,98760.41
2022-12-10T01:42:39.428Z,98748.84
2022-12-10T01:45:43.056Z,98740.91
2022-12-10T01:48:45.789Z,98744.34
2022-12-10T01:51:51.831Z,98745.94
2022-12-10T01:54:54.599Z,98743.31
2022-12-10T01:57:57.486Z,98748.47
2022-12-10T02:01:09.846Z,98753.63
2022-12-10T02:04:26.491Z,98760.53
2022-12-10T02:07:28.850Z,98773.97
2022-12-10T02:10:47.410Z,98777.06
2022-12-10T02:14:01.774Z,98776.16
2022-12-10T02:17:12.829Z,98786.47
2022-12-10T02:20:32.785Z,98774.47
2022-12-10T02:23:43.854Z,98788.38
2022-12-10T02:27:07.648Z,98777.16
2022-12-10T02:30:11.431Z,98778.03
2022-12-10T02:33:15.431Z,98782.44
2022-12-10T02:36:21.577Z,98787.69
2022-12-10T02:39:32.694Z,98787.78
2022-12-10T02:42:39.870Z,98786.09
2022-12-10T02:45:44.822Z,98780.97
2022-12-10T02:48:51.157Z,98779.41
2022-12-10T02:51:54.311Z,98777.59
2022-12-10T02:54:58.555Z,98774.19
2022-12-10T02:58:16.960Z,98776.97
2022-12-10T03:01:46.016Z,98778.81
2022-12-10T03:04:55.360Z,98783.41
2022-12-10T03:08:12.763Z,98779.84
2022-12-10T03:11:20.662Z,98776.50
2022-12-10T03:14:28.932Z,98791.25
2022-12-10T03:17:33.322Z,98792.00
2022-12-10T03:20:40.546Z,98790.31
2022-12-10T03:23:46.743Z,98797.28
2022-12-10T03:26:51.095Z,98809.28
2022-12-10T03:29:57.234Z,98819.59
2022-12-10T03:33:01.105Z,98821.56
2022-12-10T03:36:04.447Z,98807.72
2022-12-10T03:39:08.390Z,98810.13
2022-12-10T03:42:10.728Z,98811.00
2022-12-10T03:45:14.766Z,98799.03
2022-12-10T03:48:17.411Z,98809.09
2022-12-10T03:51:20.959Z,98830.16
2022-12-10T03:54:23.543Z,98829.88
2022-12-10T03:57:26.660Z,98836.13
2022-12-10T04:00:29.209Z,98828.28
2022-12-10T04:03:37.209Z,98828.06
2022-12-10T04:06:41.695Z,98832.53
2022-12-10T04:09:44.840Z,98825.66
2022-12-10T04:13:07.284Z,98841.81
2022-12-10T04:16:28.409Z,98845.97
2022-12-10T04:19:31.046Z,98841.53
2022-12-10T04:22:52.441Z,98844.88
2022-12-10T04:26:13.797Z,98835.28
2022-12-10T04:29:17.183Z,98837.00
2022-12-10T04:32:20.873Z,98846.47
2022-12-10T04:35:24.040Z,98852.41
2022-12-10T04:38:26.427Z,98852.28
2022-12-10T04:41:29.509Z,98850.50
2022-12-10T04:44:32.616Z,98847.91
2022-12-10T04:47:35.491Z,98835.91
2022-12-10T04:50:37.851Z,98839.94
2022-12-10T04:53:40.889Z,98841.97
2022-12-10T04:56:44.197Z,98843.41
2022-12-10T04:59:47.697Z,98839.03
2022-12-10T05:02:50.786Z,98851.03
2022-12-10T05:05:53.819Z,98852.91
2022-12-10T05:08:56.954Z,98853.62
2022-12-10T05:12:00.041Z,98851.13
2022-12-10T05:15:02.566Z,98850.22
2022-12-10T05:18:05.655Z,98858.81
2022-12-10T05:21:12.000Z,98859.91
2022-12-10T05:24:16.343Z,98869.59
2022-12-10T05:27:18.801Z,98887.34
2022-12-10T05:30:21.858Z,98894.16
2022-12-10T05:33:25.315Z,98892.31
2022-12-10T05:36:31.630Z,98896.59
2022-12-10T05:39:34.090Z,98900.12
2022-12-10T05:42:39.538Z,98894.00
2022-12-10T05:45:42.264Z,98890.56
2022-12-10T05:48:45.592Z,98898.88
2022-12-10T05:51:48.104Z,98896.78
2022-12-10T05:54:51.194Z,98897.56
2022-12-10T05:57:53.956Z,98913.75
2022-12-10T06:00:58.425Z,98899.94
2022-12-10T06:04:03.029Z,98893.84
2022-12-10T06:07:10.928Z,98899.75
2022-12-10T06:10:14.003Z,98902.34
2022-12-10T06:13:16.802Z,98909.19
2022-12-10T06:16:19.575Z,98907.62
2022-12-10T06:19:22.359Z,98912.84
2022-12-10T06:22:25.087Z,98914.47
2022-12-10T06:25:27.803Z,98928.28
2022-12-10T06:28:30.527Z,98929.19
2022-12-10T06:31:33.895Z,98925.69
2022-12-10T06:34:42.632Z,98922.66
2022-12-10T06:37:45.644Z,98917.06
2022-12-10T06:40:48.387Z,98917.81
2022-12-10T06:43:51.149Z,98931.47
2022-12-10T06:46:54.059Z,98944.41
2022-12-10T06:49:56.848Z,98938.38
2022-12-10T06:52:59.547Z,98940.09
2022-12-10T06:56:03.137Z,98941.53
2022-12-10T06:59:09.777Z,98943.91
2022-12-10T07:02:12.796Z,98948.53
2022-12-10T07:05:15.813Z,98927.16
2022-12-10T07:08:20.419Z,98929.13
2022-12-10T07:11:25.115Z,98931.72
2022-12-10T07:14:27.834Z,98938.62
2022-12-10T07:17:30.933Z,98934.47
2022-12-10T07:20:33.661Z,98934.34
2022-12-10T07:23:36.362Z,98940.16
2022-12-10T07:26:41.415Z,98945.94
2022-12-10T07:29:45.417Z,98936.44
2022-12-10T07:32:48.170Z,98939.78
2022-12-10T07:35:50.876Z,98919.44
2022-12-10T07:38:55.185Z,98909.88
2022-12-10T07:41:57.954Z,98900.44
2022-12-10T07:45:00.726Z,98910.84
2022-12-10T07:48:03.688Z,98911.81
2022-12-10T07:51:06.619Z,98918.81
2022-12-10T07:54:09.332Z,98923.06
2022-12-10T07:57:12.357Z,98929.03
2022-12-10T08:00:17.736Z,98942.28
2022-12-10T08:03:20.972Z,98940.34
2022-12-10T08:06:25.068Z,98953.31
2022-12-10T08:09:29.622Z,98938.09
2022-12-10T08:12:32.175Z,98934.16
2022-12-10T08:15:35.320Z,98926.97
2022-12-10T08:18:38.096Z,98925.44
2022-12-10T08:21:41.186Z,98942.53
2022-12-10T08:24:43.765Z,98936.47
2022-12-10T08:27:46.795Z,98915.75
2022-12-10T08:30:49.649Z,98913.38
2022-12-10T08:33:53.503Z,98921.38
2022-12-10T08:36:56.098Z,98913.16
2022-12-10T08:39:59.063Z,98910.13
2022-12-10T08:43:01.556Z,98910.41
2022-12-10T08:46:05.391Z,98907.75
2022-12-10T08:49:08.223Z,98908.69
2022-12-10T08:52:11.170Z,98916.75
2022-12-10T08:55:13.814Z,98931.72
2022-12-10T08:58:16.841Z,98933.63
2022-12-10T09:01:20.404Z,98933.91
2022-12-10T09:04:23.547Z,98941.00
2022-12-10T09:07:26.215Z,98941.41
2022-12-10T09:10:29.465Z,98946.31
2022-12-10T09:13:32.027Z,98940.13
2022-12-10T09:16:37.819Z,98950.88
2022-12-10T09:19:41.382Z,98952.50
2022-12-10T09:22:44.484Z,98950.88
2022-12-10T09:25:47.164Z,98948.09
2022-12-10T09:28:52.766Z,98934.94
2022-12-10T09:31:55.947Z,98934.53
2022-12-10T09:34:59.258Z,98930.12
2022-12-10T09:38:01.807Z,98934.97
2022-12-10T09:41:18.363Z,98932.22
2022-12-10T09:44:37.211Z,98936.53
2022-12-10T09:47:55.852Z,98923.66
2022-12-10T09:51:18.449Z,98911.59
2022-12-10T09:54:35.121Z,98910.19
2022-12-10T09:57:45.291Z,98908.34
2022-12-10T10:00:52.841Z,98900.56
2022-12-10T10:03:55.659Z,98886.09
2022-12-10T10:06:58.820Z,98892.94
2022-12-10T10:10:06.169Z,98890.56
2022-12-10T10:13:09.054Z,98883.78
2022-12-10T10:16:28.854Z,98889.53
2022-12-10T10:19:36.824Z,98880.72
2022-12-10T10:22:41.556Z,98887.50
2022-12-10T10:25:45.572Z,98883.41
2022-12-10T10:28:52.715Z,98884.94
2022-12-10T10:32:16.333Z,98890.53
2022-12-10T10:35:27.023Z,98892.00
2022-12-10T10:38:31.020Z,98880.81
2022-12-10T10:41:40.756Z,98881.81
2022-12-10T10:44:43.612Z,98885.41
2022-12-10T10:47:46.407Z,98888.13
2022-12-10T10:51:09.675Z,98897.47
2022-12-10T10:54:12.716Z,98894.69
2022-12-10T10:57:34.518Z,98898.09
2022-12-10T11:00:37.282Z,98891.44
2022-12-10T11:03:48.536Z,98901.69
2022-12-10T11:06:54.570Z,98886.84
2022-12-10T11:10:00.548Z,98880.72
2022-12-10T11:13:05.427Z,98880.66
2022-12-10T11:16:26.079Z,98865.91
2022-12-10T11:19:29.003Z,98866.66
2022-12-10T11:22:34.321Z,98863.13
2022-12-10T11:25:57.568Z,98858.03
2022-12-10T11:29:18.458Z,98852.03
2022-12-10T11:32:35.207Z,98854.66
2022-12-10T11:35:40.613Z,98839.94
2022-12-10T11:38:53.686Z,98834.66
2022-12-10T11:42:25.474Z,98837.16
2022-12-10T11:46:07.207Z,98819.19
2022-12-10T11:49:19.121Z,98824.28
2022-12-10T11:52:43.252Z,98818.16
2022-12-10T11:56:15.298Z,98804.44
2022-12-10T12:00:04.135Z,98802.75
2022-12-10T12:03:17.259Z,98792.38
2022-12-10T12:06:36.076Z,98787.16
2022-12-10T12:09:56.852Z,98795.44
2022-12-10T12:13:18.399Z,98794.38
2022-12-10T12:16:29.720Z,98789.03
2022-12-10T12:19:40.224Z,98783.88
2022-12-10T12:22:48.398Z,98788.34
2022-12-10T12:25:58.669Z,98784.59
2022-12-10T12:29:22.557Z,98781.00
2022-12-10T12:32:37.366Z,98773.34
2022-12-10T12:35:44.897Z,98779.09
2022-12-10T12:39:12.765Z,98774.66
2022-12-10T12:42:50.597Z,98777.12
2022-12-10T12:45:55.299Z,98769.28
2022-12-10T12:49:15.218Z,98772.63
2022-12-10T12:52:30.538Z,98771.78
2022-12-10T12:55:44.811Z,98779.50
2022-12-10T12:59:13.646Z,98775.94
2022-12-10T13:02:54.025Z,98782.69
2022-12-10T13:06:18.033Z,98797.13
2022-12-10T13:09:27.861Z,98787.63
2022-12-10T13:12:32.963Z,98797.25
2022-12-10T13:15:40.186Z,98794.63
2022-12-10T13:18:43.090Z,98804.37
2022-12-10T13:21:51.858Z,98816.19
2022-12-10T13:25:12.406Z,98804.84
2022-12-10T13:28:27.341Z,98809.03
2022-12-10T13:31:49.035Z,98807.38
2022-12-10T13:35:17.844Z,98806.47
2022-12-10T13:38:23.875Z,98792.69
2022-12-10T13:41:45.356Z,98799.59
2022-12-10T13:44:51.227Z,98796.09
2022-12-10T13:48:14.277Z,98792.75
2022-12-10T13:51:26.632Z,98798.69
2022-12-10T13:55:04.273Z,98791.84
2022-12-10T13:58:20.237Z,98789.09
2022-12-10T14:01:38.689Z,98787.44
2022-12-10T14:05:01.662Z,98780.38
2022-12-10T14:08:06.296Z,98779.38
2022-12-10T14:11:23.736Z,98769.78
2022-12-10T14:14:39.498Z,98769.69
2022-12-10T14:17:44.412Z,98769.75
2022-12-10T14:20:51.627Z,98766.19
2022-12-10T14:23:56.711Z,98769.75
2022-12-10T14:27:12.722Z,98768.97
2022-12-10T14:30:22.607Z,98778.28
2022-12-10T14:33:26.407Z,98773.94
2022-12-10T14:36:33.437Z,98775.00
2022-12-10T14:39:39.575Z,98773.84
2022-12-10T14:42:42.471Z,98773.75
2022-12-10T14:45:58.305Z,98772.78
2022-12-10T14:49:01.382Z,98778.78
2022-12-10T14:52:09.968Z,98776.13
2022-12-10T14:55:19.616Z,98775.22
2022-12-10T14:58:46.599Z,98773.47
2022-12-10T15:01:57.152Z,98771.78
2022-12-10T15:05:00.643Z,98773.53
2022-12-10T15:08:16.841Z,98769.28
2022-12-10T15:11:21.075Z,98760.59
2022-12-10T15:14:25.697Z,98758.94
2022-12-10T15:17:45.288Z,98751.94
2022-12-10T15:20:52.585Z,98759.66
2022-12-10T15:24:27.358Z,98748.50
2022-12-10T15:27:30.339Z,98754.53
2022-12-10T15:30:36.420Z,98752.00
2022-12-10T15:33:54.693Z,98746.06
2022-12-10T15:37:03.085Z,98749.31
2022-12-10T15:40:20.754Z,98733.78
2022-12-10T15:43:23.516Z,98745.84
2022-12-10T15:46:26.616Z,98737.28
2022-12-10T15:49:30.654Z,98729.47
2022-12-10T15:52:33.817Z,98734.63
2022-12-10T15:55:36.579Z,98730.28
2022-12-10T15:58:43.124Z,98720.59
2022-12-10T16:01:46.998Z,98729.13
2022-12-10T16:04:49.815Z,98730.84
2022-12-10T16:07:56.266Z,98720.41
2022-12-10T16:11:03.491Z,98715.31
2022-12-10T16:14:07.532Z,98710.34
2022-12-10T16:17:13.096Z,98704.38
2022-12-10T16:20:19.668Z,98707.94
2022-12-10T16:23:22.572Z,98709.50
2022-12-10T16:26:25.475Z,98705.37
2022-12-10T16:29:28.239Z,98695.13
2022-12-10T16:32:30.972Z,98699.50
2022-12-10T16:35:33.750Z,98687.28
2022-12-10T16:38:36.489Z,98682.31
2022-12-10T16:41:39.634Z,98679.72
2022-12-10T16:44:42.428Z,98678.00
2022-12-10T16:47:45.309Z,98673.88
2022-12-10T16:50:50.384Z,98677.38
2022-12-10T16:53:53.157Z,98665.06
2022-12-10T16:56:55.905Z,98672.72
2022-12-10T16:59:58.692Z,98670.94
2022-12-10T17:03:07.794Z,98658.87
2022-12-10T17:06:12.904Z,98659.03
2022-12-10T17:09:15.999Z,98654.66
2022-12-10T17:12:19.179Z,98642.69
2022-12-10T17:15:21.879Z,98640.00
2022-12-10T17:18:24.982Z,98633.00
2022-12-10T17:21:27.894Z,98641.63
2022-12-10T17:24:31.444Z,98637.41
2022-12-10T17:27:38.893Z,98626.16
2022-12-10T17:30:42.669Z,98618.38
2022-12-10T17:33:51.511Z,98610.59
2022-12-10T17:36:55.098Z,98609.78
2022-12-10T17:39:57.823Z,98605.47
2022-12-10T17:43:00.525Z,98606.34
2022-12-10T17:46:03.467Z,98597.72
2022-12-10T17:49:07.014Z,98593.34
2022-12-10T17:52:09.842Z,98586.31
2022-12-10T17:55:12.618Z,98595.28
2022-12-10T17:58:15.948Z,98595.91
2022-12-10T18:01:20.084Z,98593.16
2022-12-10T18:04:23.126Z,98586.22
2022-12-10T18:07:25.607Z,98586.28
2022-12-10T18:10:32.220Z,98581.19
2022-12-10T18:13:34.680Z,98574.50
2022-12-10T18:16:38.470Z,98569.22
2022-12-10T18:19:44.295Z,98570.94
2022-12-10T18:22:48.207Z,98566.19
2022-12-10T18:25:51.102Z,98564.34
2022-12-10T18:28:55.696Z,98556.56
2022-12-10T18:31:58.061Z,98556.66
2022-12-10T18:35:01.068Z,98550.47
2022-12-10T18:38:03.864Z,98557.28
2022-12-10T18:41:11.234Z,98549.47
2022-12-10T18:44:17.106Z,98544.38
2022-12-10T18:47:20.182Z,98547.00
2022-12-10T18:50:25.776Z,98543.56
2022-12-10T18:53:28.815Z,98526.34
2022-12-10T18:56:32.908Z,98528.22
2022-12-10T18:59:36.077Z,98517.88
2022-12-10T19:02:43.619Z,98516.16
2022-12-10T19:05:46.990Z,98510.22
2022-12-10T19:12:13.714Z,98517.41
2022-12-10T19:15:18.848Z,98510.41
2022-12-10T19:18:21.935Z,98518.22
2022-12-10T19:21:24.477Z,98508.81
2022-12-10T19:24:27.507Z,98502.78
2022-12-10T19:27:29.945Z,98509.63
2022-12-10T19:30:33.213Z,98504.47
2022-12-10T19:33:35.807Z,98500.97
2022-12-10T19:36:40.344Z,98486.38
2022-12-10T19:39:42.958Z,98485.50
2022-12-10T19:42:46.244Z,98483.84
2022-12-10T19:45:48.736Z,98488.16
2022-12-10T19:48:52.047Z,98478.81
2022-12-10T19:51:54.535Z,98474.47
2022-12-10T19:54:57.770Z,98467.50
2022-12-10T19:58:00.372Z,98469.25
2022-12-10T20:01:07.047Z,98467.63
2022-12-10T20:04:10.111Z,98463.28
2022-12-10T20:07:13.116Z,98463.31
2022-12-10T20:10:22.123Z,98459.09
2022-12-10T20:13:25.100Z,98461.63
2022-12-10T20:16:30.045Z,98457.47
2022-12-10T20:19:33.709Z,98450.41
2022-12-10T20:22:36.660Z,98458.12
2022-12-10T20:25:42.051Z,98449.50
2022-12-10T20:28:46.697Z,98438.44
2022-12-10T20:31:51.621Z,98441.81
2022-12-10T20:34:54.372Z,98434.06
2022-12-10T20:37:58.699Z,98434.94
2022-12-10T20:41:01.515Z,98425.50
2022-12-10T20:44:04.519Z,98425.78
2022-12-10T20:47:09.904Z,98424.81
2022-12-10T20:50:16.764Z,98424.72
2022-12-10T20:53:19.628Z,98421.28
2022-12-10T20:56:24.711Z,98413.47
2022-12-10T20:59:31.324Z,98416.06
2022-12-10T21:02:34.395Z,98409.97
2022-12-10T21:05:37.261Z,98401.31
2022-12-10T21:08:40.103Z,98400.41
2022-12-10T21:11:42.870Z,98399.50
2022-12-10T21:14:54.060Z,98403.91
2022-12-10T21:17:59.849Z,98395.31
2022-12-10T21:21:03.157Z,98397.03
2022-12-10T21:24:06.395Z,98396.22
2022-12-10T21:27:09.196Z,98401.47
2022-12-10T21:30:13.053Z,98398.22
2022-12-10T21:33:22.884Z,98388.03
2022-12-10T21:36:26.205Z,98384.31
2022-12-10T21:39:28.999Z,98389.50
2022-12-10T21:42:50.121Z,98389.44
2022-12-10T21:45:55.969Z,98380.84
2022-12-10T21:48:58.980Z,98381.75
2022-12-10T21:52:01.693Z,98369.59
2022-12-10T21:55:05.583Z,98370.34
2022-12-10T21:58:08.445Z,98365.22
2022-12-10T22:01:14.260Z,98358.44
2022-12-10T22:04:17.865Z,98357.28
2022-12-10T22:07:20.484Z,98358.22
2022-12-10T22:10:23.722Z,98364.25
2022-12-10T22:13:26.183Z,98358.91
2022-12-10T22:16:29.432Z,98365.72
2022-12-10T22:19:31.977Z,98359.03
2022-12-10T22:22:35.347Z,98359.91
2022-12-10T22:25:41.541Z,98365.56
2022-12-10T22:28:44.981Z,98359.69
2022-12-10T22:31:47.580Z,98350.94
2022-12-10T22:34:53.687Z,98347.37
2022-12-10T22:37:56.173Z,98349.06
2022-12-10T22:41:02.333Z,98351.53
2022-12-10T22:44:05.015Z,98336.72
2022-12-10T22:47:08.354Z,98331.75
2022-12-10T22:50:11.194Z,98333.34
2022-12-10T22:53:14.106Z,98324.69
2022-12-10T22:56:16.870Z,98317.72
2022-12-10T22:59:19.868Z,98311.84
2022-12-10T23:02:22.596Z,98312.69
2022-12-10T23:05:26.566Z,98302.66
2022-12-10T23:08:31.281Z,98301.53
2022-12-10T23:11:34.504Z,98281.59
2022-12-10T23:14:36.989Z,98278.87
2022-12-10T23:17:40.020Z,98271.84
2022-12-10T23:20:49.249Z,98262.34
2022-12-10T23:23:54.604Z,98252.81
2022-12-10T23:26:57.093Z,98244.12
2022-12-10T23:30:00.164Z,98247.50
2022-12-10T23:33:08.216Z,98241.34
2022-12-10T23:36:12.061Z,98238.81
2022-12-10T23:39:15.161Z,98239.94
2022-12-10T23:42:18.127Z,98226.84
2022-12-10T23:45:23.573Z,98225.09
2022-12-10T23:48:26.721Z,98218.19
2022-12-10T23:51:29.327Z,98214.94
2022-12-10T23:54:33.504Z,98207.03
2022-12-10T23:57:36.588Z,98210.59
